Arklow Rock — PBZM — position and weather

sailwx.info

Track history (hours):
 
Tides and Currents Weather Stations Pressure Air Temp Water Temp Dewpoint Dewpoint Depression Visibility Wind Speed Wind Dir Waves Ship Positions

Arklow Rock

Last reported at 2017-Nov-19 12:00 UTC. Time now 2017-Nov-19 12:26 UTC.
Position N 52°15' E 003°58'.

Length 90 m; draft 4.1 m.

Type: Cargo ship. MMSI: 246002000.

Date/timePositionNaut miles runAvg speedWind from/ knotsBaromVisibWave heightAir tempDewpointWater temp
2017-Nov-19 12:00N 52°15' E 003°58'1 1.1
2017-Nov-19 11:30N 52°15' E 003°58'1 1.1
2017-Nov-19 11:00N 52°14' E 003°59'1 2.0
2017-Nov-19 10:31N 52°13' E 003°60'3 6.5
2017-Nov-19 10:01N 52°16' E 003°57'3 6.4
2017-Nov-19 09:30N 52°19' E 003°55'3 6.4
2017-Nov-19 09:00N 52°22' E 003°53'2 3.8
2017-Nov-19 08:30N 52°23' E 003°57'2 3.8
2017-Nov-19 08:00N 52°23' E 003°60'2 3.5
2017-Nov-19 07:30N 52°23' E 004°02'3 6.5
2017-Nov-19 07:00N 52°25' E 004°07'3 5.3
2017-Nov-19 06:29N 52°27' E 004°09'0 0.1
2017-Nov-19 05:53N 52°27' E 004°09'0 0.0
2017-Nov-19 05:29N 52°27' E 004°09'0 0.1
2017-Nov-19 04:59N 52°27' E 004°09'0 0.0
2017-Nov-19 04:29N 52°27' E 004°09'0 0.1
2017-Nov-19 03:58N 52°27' E 004°09'0 0.1
2017-Nov-19 03:28N 52°27' E 004°09'0 0.0
2017-Nov-19 02:55N 52°28' E 004°09'0 0.0
2017-Nov-19 02:28N 52°27' E 004°09'0 0.1
2017-Nov-19 01:55N 52°27' E 004°09'0 0.0
2017-Nov-19 01:28N 52°27' E 004°09'0 0.1
2017-Nov-19 00:58N 52°27' E 004°09'0 0.1
2017-Nov-19 00:28N 52°27' E 004°09'0 0.1
2017-Nov-18 23:58N 52°27' E 004°09'0 0.0
2017-Nov-18 23:28N 52°27' E 004°09'0 0.1
2017-Nov-18 22:58N 52°27' E 004°09'0 0.0
2017-Nov-18 22:25N 52°27' E 004°09'0 0.0
2017-Nov-18 21:58N 52°27' E 004°09'0 0.0
2017-Nov-18 21:25N 52°27' E 004°09'0 0.1
2017-Nov-18 21:00N 52°28' E 004°09'1 1.7
2017-Nov-18 20:30N 52°27' E 004°08'5 9.1
2017-Nov-18 20:00N 52°24' E 004°03'3 6.3
2017-Nov-18 19:30N 52°21' E 003°60'1 2.3
2017-Nov-18 19:00N 52°20' E 004°01'1 2.3
2017-Nov-18 18:30N 52°19' E 004°02'2 3.1
2017-Nov-18 18:00N 52°18' E 004°03'2 3.3
2017-Nov-18 17:30N 52°16' E 004°04'0 0.9
2017-Nov-18 17:00N 52°16' E 004°03'2 4.7
2017-Nov-18 16:30N 52°18' E 004°01'2 4.4
2017-Nov-18 16:00N 52°20' E 003°60'2 4.8
2017-Nov-18 15:30N 52°22' E 003°57'3 6.1
2017-Nov-18 15:00N 52°25' E 004°00'4 8.0
2017-Nov-18 14:30N 52°27' E 004°06'1 1.8
2017-Nov-18 13:58N 52°27' E 004°07'0 0.0
2017-Nov-18 13:22N 52°27' E 004°07'0 0.1
2017-Nov-18 12:58N 52°27' E 004°07'0 0.1
2017-Nov-18 12:28N 52°27' E 004°07'0 0.1
2017-Nov-18 11:52N 52°27' E 004°07'0 0.1
2017-Nov-18 11:25N 52°27' E 004°07'0 0.1
2017-Nov-18 10:49N 52°27' E 004°07'0 0.0
2017-Nov-18 10:25N 52°27' E 004°07'0 0.1
2017-Nov-18 09:58N 52°27' E 004°07'0 0.1
2017-Nov-18 09:22N 52°27' E 004°07'0 0.0
2017-Nov-18 08:55N 52°27' E 004°07'0 0.0
2017-Nov-18 08:28N 52°27' E 004°07'0 0.0
2017-Nov-18 07:58N 52°27' E 004°07'0 0.1
2017-Nov-18 07:28N 52°27' E 004°07'0 0.0
2017-Nov-18 06:52N 52°27' E 004°07'0 0.1
2017-Nov-18 06:28N 52°27' E 004°07'0 0.0
2017-Nov-18 05:58N 52°27' E 004°07'0 0.1
2017-Nov-18 05:25N 52°27' E 004°07'0 0.1
2017-Nov-18 04:58N 52°27' E 004°07'0 0.0
2017-Nov-18 04:25N 52°27' E 004°07'0 0.0
2017-Nov-18 03:58N 52°27' E 004°07'0 0.0
2017-Nov-18 03:25N 52°27' E 004°07'0 0.0
2017-Nov-18 02:55N 52°27' E 004°07'0 0.0
2017-Nov-18 02:28N 52°27' E 004°07'0 0.0
2017-Nov-18 01:58N 52°27' E 004°07'0 0.1
2017-Nov-18 01:19N 52°27' E 004°07'0 0.0
2017-Nov-18 00:58N 52°27' E 004°07'0 0.1
2017-Nov-18 00:28N 52°27' E 004°07'0 0.1
2017-Nov-17 23:58N 52°27' E 004°07'0 0.0
2017-Nov-17 23:28N 52°27' E 004°07'0 0.0
2017-Nov-17 22:55N 52°27' E 004°07'0 0.0
2017-Nov-17 22:25N 52°27' E 004°07'0 0.0
2017-Nov-17 21:55N 52°27' E 004°07'0 0.0
2017-Nov-17 21:25N 52°27' E 004°07'0 0.0
2017-Nov-17 20:58N 52°27' E 004°07'0 0.0
2017-Nov-17 20:28N 52°27' E 004°07'0 0.0
2017-Nov-17 19:58N 52°27' E 004°07'0 0.0
2017-Nov-17 19:31N 52°27' E 004°07'0 0.0
2017-Nov-17 19:01N 52°27' E 004°07'0 0.0
2017-Nov-17 18:30N 52°27' E 004°07'0 0.0
2017-Nov-17 17:51N 52°27' E 004°07'0 0.0
2017-Nov-17 17:30N 52°27' E 004°07'0 0.1
2017-Nov-17 17:00N 52°27' E 004°07'0 0.0
2017-Nov-17 16:30N 52°27' E 004°07'0 0.0
2017-Nov-17 16:00N 52°27' E 004°07'0 0.0
2017-Nov-17 15:30N 52°27' E 004°07'0 0.0
2017-Nov-17 15:00N 52°27' E 004°07'0 0.0
2017-Nov-17 14:18N 52°27' E 004°07'0 0.0
2017-Nov-17 14:00N 52°27' E 004°07'0 0.0
2017-Nov-17 13:30N 52°27' E 004°07'0 0.1
2017-Nov-17 13:00N 52°27' E 004°07'0 0.1
2017-Nov-17 12:30N 52°27' E 004°07'0 0.1
2017-Nov-17 12:00N 52°27' E 004°07'0 0.0
2017-Nov-17 11:24N 52°27' E 004°07'0 0.1
2017-Nov-17 11:00N 52°27' E 004°07'0 0.0
2017-Nov-17 10:30N 52°27' E 004°07'0 0.0
2017-Nov-17 09:57N 52°27' E 004°07'0 0.0
2017-Nov-17 09:21N 52°27' E 004°07'0 0.0
2017-Nov-17 09:00N 52°27' E 004°07'0 0.0
2017-Nov-17 08:30N 52°27' E 004°07'0 0.0
2017-Nov-17 08:00N 52°27' E 004°07'0 0.0
2017-Nov-17 07:27N 52°27' E 004°07'0 0.0
2017-Nov-17 07:00N 52°27' E 004°07'0 0.0
2017-Nov-17 06:30N 52°27' E 004°07'0 0.0
2017-Nov-17 05:57N 52°27' E 004°07'0 0.0
2017-Nov-17 05:30N 52°27' E 004°07'0 0.0
2017-Nov-17 04:51N 52°27' E 004°07'0 0.2
2017-Nov-17 04:24N 52°27' E 004°07'0 0.0
2017-Nov-17 04:00N 52°27' E 004°07'0 0.0
2017-Nov-17 03:30N 52°27' E 004°07'0 0.0
2017-Nov-17 03:00N 52°27' E 004°07'0 0.0
2017-Nov-17 02:30N 52°27' E 004°07'0 0.0
2017-Nov-17 02:00N 52°27' E 004°07'0 0.0
2017-Nov-17 01:27N 52°27' E 004°07'0 0.1
2017-Nov-17 01:00N 52°27' E 004°07'0 0.1
2017-Nov-17 00:30N 52°27' E 004°07'0 0.1
2017-Nov-17 00:00N 52°27' E 004°07'0 0.0
2017-Nov-16 23:09N 52°27' E 004°07'0 0.0
2017-Nov-16 22:42N 52°27' E 004°07'0 0.0
2017-Nov-16 22:27N 52°27' E 004°07'0 0.0
2017-Nov-16 22:00N 52°27' E 004°07'0 0.0
2017-Nov-16 21:30N 52°27' E 004°07'0 0.0
2017-Nov-16 20:58N 52°27' E 004°07'0 0.0
2017-Nov-16 20:28N 52°27' E 004°07'0 0.0
2017-Nov-16 20:00N 52°27' E 004°07'0 0.2
2017-Nov-16 19:30N 52°27' E 004°07'4 7.6
2017-Nov-16 19:00N 52°26' E 004°01'7 8.6
2017-Nov-16 18:09N 52°21' E 003°52'510.5
2017-Nov-16 17:39N 52°16' E 003°53'211.2
2017-Nov-16 17:30N 52°14' E 003°53'611.5
2017-Nov-16 17:00N 52°08' E 003°55'612.0
2017-Nov-16 16:30N 52°02' E 003°55'510.1
2017-Nov-16 16:00N 51°60' E 004°02'612.1
2017-Nov-16 15:30N 51°57' E 004°11'611.8
2017-Nov-16 15:00N 51°54' E 004°19'5 9.0
2017-Nov-16 14:30N 51°54' E 004°26'1 1.2
2017-Nov-16 13:58N 51°53' E 004°27'0 0.0
2017-Nov-16 13:28N 51°53' E 004°27'0 0.0
2017-Nov-16 12:58N 51°53' E 004°27'0 0.0
2017-Nov-16 12:28N 51°53' E 004°27'0 0.0
2017-Nov-16 11:58N 51°53' E 004°27'0 0.0
2017-Nov-16 11:28N 51°53' E 004°27'0 0.0
2017-Nov-16 10:58N 51°53' E 004°27'0 0.0
2017-Nov-16 10:31N 51°53' E 004°27'0 0.0
2017-Nov-16 10:01N 51°53' E 004°27'0 0.0
2017-Nov-16 09:27N 51°53' E 004°27'0 0.0
2017-Nov-16 09:00N 51°53' E 004°27'0 0.0
2017-Nov-16 08:30N 51°53' E 004°27'0 0.0
2017-Nov-16 08:00N 51°53' E 004°27'0 0.0
2017-Nov-16 07:30N 51°53' E 004°27'0 0.0
2017-Nov-16 07:00N 51°53' E 004°27'0 0.0
2017-Nov-16 06:30N 51°53' E 004°27'0 0.0
2017-Nov-16 06:00N 51°53' E 004°27'0 0.0
2017-Nov-16 05:30N 51°53' E 004°27'0 0.0
2017-Nov-16 05:00N 51°53' E 004°27'0 0.0
2017-Nov-16 04:30N 51°53' E 004°27'0 0.0
2017-Nov-16 04:00N 51°53' E 004°27'0 0.0
2017-Nov-16 03:30N 51°53' E 004°27'0 0.0
2017-Nov-16 03:00N 51°53' E 004°27'0 0.0
2017-Nov-16 02:30N 51°53' E 004°27'0 0.0
2017-Nov-16 02:00N 51°53' E 004°27'0 0.0
2017-Nov-16 01:30N 51°53' E 004°27'0 0.0
2017-Nov-16 01:00N 51°53' E 004°27'0 0.0
2017-Nov-16 00:30N 51°53' E 004°27'0 0.0
2017-Nov-15 23:57N 51°53' E 004°27'0 0.0
2017-Nov-15 23:30N 51°53' E 004°27'0 0.0
2017-Nov-15 23:00N 51°53' E 004°27'0 0.0
2017-Nov-15 22:30N 51°53' E 004°27'0 0.0
2017-Nov-15 22:00N 51°53' E 004°27'0 0.0
2017-Nov-15 21:30N 51°53' E 004°27'0 0.0
2017-Nov-15 21:00N 51°53' E 004°27'0 0.0
2017-Nov-15 20:30N 51°53' E 004°27'0 0.0
2017-Nov-15 20:00N 51°53' E 004°27'0 0.0
2017-Nov-15 19:30N 51°53' E 004°27'0 0.0
2017-Nov-15 19:00N 51°53' E 004°27'0 0.0
2017-Nov-15 18:30N 51°53' E 004°27'0 0.0
2017-Nov-15 18:00N 51°53' E 004°27'0 0.0
2017-Nov-15 17:30N 51°53' E 004°27'0 0.0
2017-Nov-15 17:00N 51°53' E 004°27'0 0.0
2017-Nov-15 16:30N 51°53' E 004°27'0 0.0
2017-Nov-15 16:00N 51°53' E 004°27'0 0.0
2017-Nov-15 15:30N 51°53' E 004°27'0 0.0
2017-Nov-15 15:00N 51°53' E 004°27'0 0.0
2017-Nov-15 14:30N 51°53' E 004°27'0 0.0
2017-Nov-15 14:00N 51°53' E 004°27'0 0.0
2017-Nov-15 13:30N 51°53' E 004°27'0 0.0
2017-Nov-15 13:00N 51°53' E 004°27'0 0.0
2017-Nov-15 12:30N 51°53' E 004°27'0 0.0
2017-Nov-15 11:57N 51°53' E 004°27'0 0.0
2017-Nov-15 11:30N 51°53' E 004°27'0 0.0
2017-Nov-15 11:00N 51°53' E 004°27'0 0.0
2017-Nov-15 10:30N 51°53' E 004°27'0 0.0
2017-Nov-15 10:00N 51°53' E 004°27'0 0.0
2017-Nov-15 09:30N 51°53' E 004°27'0 0.0
2017-Nov-15 09:00N 51°53' E 004°27'0 0.0
2017-Nov-15 08:30N 51°53' E 004°27'0 0.0
2017-Nov-15 08:00N 51°53' E 004°27'0 0.0
2017-Nov-15 07:30N 51°53' E 004°27'0 0.0
2017-Nov-15 07:00N 51°53' E 004°27'0 0.0
2017-Nov-15 06:30N 51°53' E 004°27'0 0.0
2017-Nov-15 06:00N 51°53' E 004°27'0 0.0
2017-Nov-15 05:30N 51°53' E 004°27'0 0.0
2017-Nov-15 05:00N 51°53' E 004°27'0 0.0
2017-Nov-15 04:30N 51°53' E 004°27'0 0.0
2017-Nov-15 04:00N 51°53' E 004°27'0 0.0
2017-Nov-15 03:27N 51°53' E 004°27'0 0.0
2017-Nov-15 03:00N 51°53' E 004°27'0 0.0
2017-Nov-15 02:30N 51°53' E 004°27'0 0.0
2017-Nov-15 01:59N 51°53' E 004°27'0 0.0
2017-Nov-15 01:29N 51°53' E 004°27'0 0.0
2017-Nov-15 00:56N 51°53' E 004°27'0 0.0
2017-Nov-15 00:29N 51°53' E 004°27'0 0.0
2017-Nov-14 23:59N 51°53' E 004°27'0 0.0
2017-Nov-14 23:29N 51°53' E 004°27'0 0.0
2017-Nov-14 22:59N 51°53' E 004°27'0 0.0
2017-Nov-14 22:29N 51°53' E 004°27'0 0.0
2017-Nov-14 21:59N 51°53' E 004°27'0 0.0
2017-Nov-14 21:29N 51°53' E 004°27'0 0.0
2017-Nov-14 20:59N 51°53' E 004°27'0 0.0
2017-Nov-14 20:29N 51°53' E 004°27'0 0.0
2017-Nov-14 19:59N 51°53' E 004°27'0 0.0
2017-Nov-14 19:29N 51°53' E 004°27'0 0.0
2017-Nov-14 18:59N 51°53' E 004°27'0 0.0
2017-Nov-14 18:29N 51°53' E 004°27'0 0.0
2017-Nov-14 17:59N 51°53' E 004°27'0 0.0
2017-Nov-14 17:29N 51°53' E 004°27'0 0.0
2017-Nov-14 16:59N 51°53' E 004°27'0 0.0
2017-Nov-14 16:29N 51°53' E 004°27'0 0.0
2017-Nov-14 15:59N 51°53' E 004°27'0 0.0
2017-Nov-14 15:29N 51°53' E 004°27'0 0.0
2017-Nov-14 14:59N 51°53' E 004°27'0 0.0
2017-Nov-14 14:26N 51°53' E 004°27'0 0.0
2017-Nov-14 13:59N 51°53' E 004°27'0 0.0
2017-Nov-14 13:29N 51°53' E 004°27'0 0.0
2017-Nov-14 12:59N 51°53' E 004°27'0 0.0
2017-Nov-14 12:29N 51°53' E 004°27'0 0.0
2017-Nov-14 11:59N 51°53' E 004°27'0 0.0
2017-Nov-14 11:29N 51°53' E 004°27'0 0.0
2017-Nov-14 10:59N 51°53' E 004°27'0 0.0
2017-Nov-14 10:29N 51°53' E 004°27'0 0.0
2017-Nov-14 09:56N 51°53' E 004°27'0 0.0
2017-Nov-14 09:29N 51°53' E 004°27'0 0.0
2017-Nov-14 08:59N 51°53' E 004°27'0 0.0
2017-Nov-14 08:29N 51°53' E 004°27'0 0.0
2017-Nov-14 07:59N 51°53' E 004°27'0 0.0
2017-Nov-14 07:29N 51°53' E 004°27'0 0.0
2017-Nov-14 06:59N 51°53' E 004°27'0 0.0
2017-Nov-14 06:29N 51°53' E 004°27'0 0.0
2017-Nov-14 05:59N 51°53' E 004°27'0 0.0
2017-Nov-14 05:29N 51°53' E 004°27'0 0.0
2017-Nov-14 04:59N 51°53' E 004°27'0 0.0
2017-Nov-14 04:29N 51°53' E 004°27'0 0.0
2017-Nov-14 03:59N 51°53' E 004°27'0 0.0
2017-Nov-14 03:29N 51°53' E 004°27'0 0.0
2017-Nov-14 02:59N 51°53' E 004°27'0 0.0
2017-Nov-14 02:29N 51°53' E 004°27'0 0.0
2017-Nov-14 01:59N 51°53' E 004°27'0 0.0
2017-Nov-14 01:29N 51°53' E 004°27'0 0.0
2017-Nov-14 00:59N 51°53' E 004°27'0 0.0
2017-Nov-14 00:29N 51°53' E 004°27'0 0.0
2017-Nov-13 23:59N 51°53' E 004°27'0 0.0
2017-Nov-13 23:29N 51°53' E 004°27'0 0.0
2017-Nov-13 22:59N 51°53' E 004°27'0 0.0
2017-Nov-13 22:29N 51°53' E 004°27'0 0.0
2017-Nov-13 21:59N 51°53' E 004°27'0 0.0
2017-Nov-13 01:58N 51°53' E 004°27'0 0.0
2017-Nov-13 01:28N 51°53' E 004°27'0 0.0
2017-Nov-13 00:58N 51°53' E 004°27'0 0.0
2017-Nov-13 00:28N 51°53' E 004°27'0 0.0
2017-Nov-12 23:58N 51°53' E 004°27'0 0.0
2017-Nov-12 23:28N 51°53' E 004°27'0 0.0
2017-Nov-12 22:58N 51°53' E 004°27'0 0.0
2017-Nov-12 22:28N 51°53' E 004°27'0 0.0
2017-Nov-12 21:58N 51°53' E 004°27'0 0.0
2017-Nov-12 21:28N 51°53' E 004°27'0 0.0
2017-Nov-12 20:58N 51°53' E 004°27'0 0.0
2017-Nov-12 20:25N 51°53' E 004°27'0 0.0
2017-Nov-12 19:58N 51°53' E 004°27'0 0.0
2017-Nov-12 19:28N 51°53' E 004°27'0 0.0
2017-Nov-12 18:58N 51°53' E 004°27'0 0.0
2017-Nov-12 18:28N 51°53' E 004°27'0 0.0
2017-Nov-12 17:58N 51°53' E 004°27'0 0.0
2017-Nov-12 17:28N 51°53' E 004°27'0 0.0
2017-Nov-12 16:58N 51°53' E 004°27'0 0.0
2017-Nov-12 16:28N 51°53' E 004°27'0 0.0
2017-Nov-12 15:58N 51°53' E 004°27'0 0.0
2017-Nov-12 15:28N 51°53' E 004°27'0 0.0
2017-Nov-12 14:58N 51°53' E 004°27'0 0.0
2017-Nov-12 14:28N 51°53' E 004°27'0 0.0
2017-Nov-12 13:58N 51°53' E 004°27'0 0.0
2017-Nov-12 13:25N 51°53' E 004°27'0 0.0
2017-Nov-12 12:58N 51°53' E 004°27'0 0.0
2017-Nov-12 12:31N 51°53' E 004°27'0 0.0
2017-Nov-12 12:01N 51°53' E 004°27'0 0.0
2017-Nov-12 11:31N 51°53' E 004°27'0 0.0
2017-Nov-12 11:00N 51°53' E 004°27'0 0.0
2017-Nov-12 10:30N 51°53' E 004°27'0 0.0
2017-Nov-12 10:00N 51°53' E 004°27'0 0.0
2017-Nov-12 09:30N 51°53' E 004°27'0 0.0
2017-Nov-12 09:00N 51°53' E 004°27'0 0.0
2017-Nov-12 08:30N 51°53' E 004°27'0 0.0
2017-Nov-12 08:00N 51°53' E 004°27'0 0.0
2017-Nov-12 07:30N 51°53' E 004°27'0 0.0
2017-Nov-12 07:00N 51°53' E 004°27'0 0.0
2017-Nov-12 06:30N 51°53' E 004°27'0 0.0
2017-Nov-12 06:00N 51°53' E 004°27'0 0.0
2017-Nov-12 05:30N 51°53' E 004°27'0 0.0
2017-Nov-12 05:00N 51°53' E 004°27'0 0.0
2017-Nov-12 04:30N 51°53' E 004°27'0 0.0
2017-Nov-12 04:00N 51°53' E 004°27'0 0.0
2017-Nov-12 03:30N 51°53' E 004°27'0 0.0
2017-Nov-12 03:00N 51°53' E 004°27'0 0.0
2017-Nov-12 02:30N 51°53' E 004°27'0 0.0
2017-Nov-12 02:00N 51°53' E 004°27'0 0.0
2017-Nov-12 01:30N 51°53' E 004°27'0 0.0
2017-Nov-12 01:00N 51°53' E 004°27'0 0.0
2017-Nov-12 00:27N 51°53' E 004°27'0 0.0
2017-Nov-12 00:00N 51°53' E 004°27'0 0.0
2017-Nov-11 23:30N 51°53' E 004°27'0 0.0
2017-Nov-11 23:00N 51°53' E 004°27'0 0.0
2017-Nov-11 22:30N 51°53' E 004°27'0 0.0
2017-Nov-11 22:00N 51°53' E 004°27'0 0.0
2017-Nov-11 21:30N 51°53' E 004°27'0 0.0
2017-Nov-11 21:00N 51°53' E 004°27'0 0.0
2017-Nov-11 20:30N 51°53' E 004°27'0 0.0
2017-Nov-11 20:00N 51°53' E 004°27'0 0.0
2017-Nov-11 19:30N 51°53' E 004°27'0 0.0
2017-Nov-11 19:00N 51°53' E 004°27'0 0.0
2017-Nov-11 18:30N 51°53' E 004°27'0 0.0
2017-Nov-11 18:00N 51°53' E 004°27'0 0.0
2017-Nov-11 17:30N 51°53' E 004°27'0 0.0
2017-Nov-11 17:00N 51°53' E 004°27'0 0.0
2017-Nov-11 16:30N 51°53' E 004°27'0 0.0
2017-Nov-11 16:00N 51°53' E 004°27'0 0.0
2017-Nov-11 15:30N 51°53' E 004°27'0 0.0
2017-Nov-11 15:00N 51°53' E 004°27'0 0.0
2017-Nov-11 14:30N 51°53' E 004°27'0 0.0
2017-Nov-11 14:00N 51°53' E 004°27'0 0.0
2017-Nov-11 13:30N 51°53' E 004°27'0 0.0
2017-Nov-11 13:00N 51°53' E 004°27'0 0.0
2017-Nov-11 12:30N 51°53' E 004°27'0 0.0
2017-Nov-11 12:00N 51°53' E 004°27'0 0.0
2017-Nov-11 11:30N 51°53' E 004°27'0 0.0
2017-Nov-11 11:00N 51°53' E 004°27'0 0.0
2017-Nov-11 10:30N 51°53' E 004°27'0 0.0
2017-Nov-11 10:00N 51°53' E 004°27'0 0.0
2017-Nov-11 09:30N 51°53' E 004°27'0 0.0
2017-Nov-11 09:00N 51°53' E 004°27'0 0.0
2017-Nov-11 08:30N 51°53' E 004°27'0 0.0
2017-Nov-11 08:00N 51°53' E 004°27'0 0.0
2017-Nov-11 07:30N 51°53' E 004°27'0 0.0
2017-Nov-11 07:00N 51°53' E 004°27'0 0.0
2017-Nov-11 06:30N 51°53' E 004°27'0 0.0
2017-Nov-11 06:00N 51°53' E 004°27'0 0.0
2017-Nov-11 05:30N 51°53' E 004°27'0 0.0
2017-Nov-11 05:00N 51°53' E 004°27'0 0.0
2017-Nov-11 04:30N 51°53' E 004°27'0 0.0
2017-Nov-11 03:59N 51°53' E 004°27'0 0.0
2017-Nov-11 03:29N 51°53' E 004°27'0 0.0
2017-Nov-11 02:59N 51°53' E 004°27'0 0.0
2017-Nov-11 02:29N 51°53' E 004°27'0 0.0
2017-Nov-11 01:59N 51°53' E 004°27'0 0.0
2017-Nov-11 01:29N 51°53' E 004°27'0 0.0
2017-Nov-11 00:59N 51°53' E 004°27'0 0.0
2017-Nov-11 00:29N 51°53' E 004°27'0 0.0
2017-Nov-10 23:59N 51°53' E 004°27'0 0.0
2017-Nov-10 23:29N 51°53' E 004°27'0 0.0
2017-Nov-10 22:59N 51°53' E 004°27'0 0.0
2017-Nov-10 22:29N 51°53' E 004°27'0 0.0
2017-Nov-10 21:59N 51°53' E 004°27'0 0.0
2017-Nov-10 21:29N 51°53' E 004°27'0 0.0
2017-Nov-10 20:59N 51°53' E 004°27'0 0.0
2017-Nov-10 20:29N 51°53' E 004°27'0 0.0
2017-Nov-10 19:59N 51°53' E 004°27'0 0.0
2017-Nov-10 19:29N 51°53' E 004°27'0 0.0
2017-Nov-10 18:59N 51°53' E 004°27'0 0.0
2017-Nov-10 18:29N 51°53' E 004°27'0 0.0
2017-Nov-10 17:59N 51°53' E 004°27'0 0.0
2017-Nov-10 17:29N 51°53' E 004°27'0 0.0
2017-Nov-10 16:59N 51°53' E 004°27'0 0.0
2017-Nov-10 16:29N 51°53' E 004°27'0 0.0
2017-Nov-10 15:59N 51°53' E 004°27'0 0.0
2017-Nov-10 15:29N 51°53' E 004°27'0 0.0
2017-Nov-10 14:59N 51°53' E 004°27'0 0.0
2017-Nov-10 14:29N 51°53' E 004°27'0 0.0
2017-Nov-10 13:59N 51°53' E 004°27'0 0.0
2017-Nov-10 13:29N 51°53' E 004°27'0 0.0
2017-Nov-10 12:59N 51°53' E 004°27'0 0.0
2017-Nov-10 12:29N 51°53' E 004°27'0 0.0
2017-Nov-10 11:59N 51°53' E 004°27'0 0.0
2017-Nov-10 11:29N 51°53' E 004°27'0 0.0
2017-Nov-10 10:59N 51°53' E 004°27'0 0.0
2017-Nov-10 10:29N 51°53' E 004°27'0 0.0
2017-Nov-10 09:59N 51°53' E 004°27'0 0.0
2017-Nov-10 09:29N 51°53' E 004°27'0 0.0
2017-Nov-10 08:59N 51°53' E 004°27'0 0.0
2017-Nov-10 08:29N 51°53' E 004°27'0 0.0
2017-Nov-10 07:59N 51°53' E 004°27'0 0.0
2017-Nov-10 07:29N 51°53' E 004°27'0 0.0
2017-Nov-10 06:59N 51°53' E 004°27'0 0.0
2017-Nov-10 06:29N 51°53' E 004°27'0 0.0
2017-Nov-10 05:59N 51°53' E 004°27'0 0.0
2017-Nov-10 05:29N 51°53' E 004°27'0 0.0
2017-Nov-10 04:59N 51°53' E 004°27'0 0.0
2017-Nov-10 04:29N 51°53' E 004°27'0 0.0
2017-Nov-10 03:59N 51°53' E 004°27'0 0.0
2017-Nov-10 03:29N 51°53' E 004°27'0 0.0
2017-Nov-10 02:59N 51°53' E 004°27'0 0.0
2017-Nov-10 02:29N 51°53' E 004°27'0 0.0
2017-Nov-10 01:59N 51°53' E 004°27'0 0.0
2017-Nov-10 01:29N 51°53' E 004°27'0 0.0
2017-Nov-10 00:59N 51°53' E 004°27'0 0.0
2017-Nov-10 00:29N 51°53' E 004°27'0 0.0
2017-Nov-09 23:59N 51°53' E 004°27'0 0.0
2017-Nov-09 23:29N 51°53' E 004°27'0 0.0
2017-Nov-09 22:59N 51°53' E 004°27'0 0.0
2017-Nov-09 22:29N 51°53' E 004°27'0 0.0
2017-Nov-09 21:59N 51°53' E 004°27'0 0.0
2017-Nov-09 21:29N 51°53' E 004°27'0 0.0
2017-Nov-09 20:59N 51°53' E 004°27'0 0.0
2017-Nov-09 20:28N 51°53' E 004°27'0 0.0
2017-Nov-09 19:58N 51°53' E 004°27'0 0.0
2017-Nov-09 19:28N 51°53' E 004°27'0 0.0
2017-Nov-09 18:58N 51°53' E 004°27'0 0.0
2017-Nov-09 18:28N 51°53' E 004°27'0 0.0
2017-Nov-09 17:58N 51°53' E 004°27'0 0.0
2017-Nov-09 17:28N 51°53' E 004°27'0 0.0
2017-Nov-09 16:58N 51°53' E 004°27'0 0.3
2017-Nov-09 16:30N 51°53' E 004°27'4 7.2
2017-Nov-09 16:00N 51°54' E 004°21'611.3
2017-Nov-09 15:30N 51°56' E 004°13'611.0
2017-Nov-09 15:00N 51°59' E 004°05'611.1
2017-Nov-09 14:30N 51°60' E 003°56'611.7
2017-Nov-09 14:00N 52°01' E 003°47'5 9.6
2017-Nov-09 13:30N 52°02' E 003°39'  
Track history (hours):
 
Tides and Currents Weather Stations Pressure Air Temp Water Temp Dewpoint Dewpoint Depression Visibility Wind Speed Wind Dir Waves Ship Positions

Arklow Rock

Last reported at 2017-Nov-19 12:00 UTC. Time now 2017-Nov-19 12:26 UTC.
Position N 52°15' E 003°58'.

Length 90 m; draft 4.1 m.

Type: Cargo ship. MMSI: 246002000.

Date/timePositionNaut miles runAvg speedWind from/ knotsBaromVisibWave heightAir tempDewpointWater temp
2017-Nov-19 12:00N 52°15' E 003°58'1 1.1
2017-Nov-19 11:30N 52°15' E 003°58'1 1.1
2017-Nov-19 11:00N 52°14' E 003°59'1 2.0
2017-Nov-19 10:31N 52°13' E 003°60'3 6.5
2017-Nov-19 10:01N 52°16' E 003°57'3 6.4
2017-Nov-19 09:30N 52°19' E 003°55'3 6.4
2017-Nov-19 09:00N 52°22' E 003°53'2 3.8
2017-Nov-19 08:30N 52°23' E 003°57'2 3.8
2017-Nov-19 08:00N 52°23' E 003°60'2 3.5
2017-Nov-19 07:30N 52°23' E 004°02'3 6.5
2017-Nov-19 07:00N 52°25' E 004°07'3 5.3
2017-Nov-19 06:29N 52°27' E 004°09'0 0.1
2017-Nov-19 05:53N 52°27' E 004°09'0 0.0
2017-Nov-19 05:29N 52°27' E 004°09'0 0.1
2017-Nov-19 04:59N 52°27' E 004°09'0 0.0
2017-Nov-19 04:29N 52°27' E 004°09'0 0.1
2017-Nov-19 03:58N 52°27' E 004°09'0 0.1
2017-Nov-19 03:28N 52°27' E 004°09'0 0.0
2017-Nov-19 02:55N 52°28' E 004°09'0 0.0
2017-Nov-19 02:28N 52°27' E 004°09'0 0.1
2017-Nov-19 01:55N 52°27' E 004°09'0 0.0
2017-Nov-19 01:28N 52°27' E 004°09'0 0.1
2017-Nov-19 00:58N 52°27' E 004°09'0 0.1
2017-Nov-19 00:28N 52°27' E 004°09'0 0.1
2017-Nov-18 23:58N 52°27' E 004°09'0 0.0
2017-Nov-18 23:28N 52°27' E 004°09'0 0.1
2017-Nov-18 22:58N 52°27' E 004°09'0 0.0
2017-Nov-18 22:25N 52°27' E 004°09'0 0.0
2017-Nov-18 21:58N 52°27' E 004°09'0 0.0
2017-Nov-18 21:25N 52°27' E 004°09'0 0.1
2017-Nov-18 21:00N 52°28' E 004°09'1 1.7
2017-Nov-18 20:30N 52°27' E 004°08'5 9.1
2017-Nov-18 20:00N 52°24' E 004°03'3 6.3
2017-Nov-18 19:30N 52°21' E 003°60'1 2.3
2017-Nov-18 19:00N 52°20' E 004°01'1 2.3
2017-Nov-18 18:30N 52°19' E 004°02'2 3.1
2017-Nov-18 18:00N 52°18' E 004°03'2 3.3
2017-Nov-18 17:30N 52°16' E 004°04'0 0.9
2017-Nov-18 17:00N 52°16' E 004°03'2 4.7
2017-Nov-18 16:30N 52°18' E 004°01'2 4.4
2017-Nov-18 16:00N 52°20' E 003°60'2 4.8
2017-Nov-18 15:30N 52°22' E 003°57'3 6.1
2017-Nov-18 15:00N 52°25' E 004°00'4 8.0
2017-Nov-18 14:30N 52°27' E 004°06'1 1.8
2017-Nov-18 13:58N 52°27' E 004°07'0 0.0
2017-Nov-18 13:22N 52°27' E 004°07'0 0.1
2017-Nov-18 12:58N 52°27' E 004°07'0 0.1
2017-Nov-18 12:28N 52°27' E 004°07'0 0.1
2017-Nov-18 11:52N 52°27' E 004°07'0 0.1
2017-Nov-18 11:25N 52°27' E 004°07'0 0.1
2017-Nov-18 10:49N 52°27' E 004°07'0 0.0
2017-Nov-18 10:25N 52°27' E 004°07'0 0.1
2017-Nov-18 09:58N 52°27' E 004°07'0 0.1
2017-Nov-18 09:22N 52°27' E 004°07'0 0.0
2017-Nov-18 08:55N 52°27' E 004°07'0 0.0
2017-Nov-18 08:28N 52°27' E 004°07'0 0.0
2017-Nov-18 07:58N 52°27' E 004°07'0 0.1
2017-Nov-18 07:28N 52°27' E 004°07'0 0.0
2017-Nov-18 06:52N 52°27' E 004°07'0 0.1
2017-Nov-18 06:28N 52°27' E 004°07'0 0.0
2017-Nov-18 05:58N 52°27' E 004°07'0 0.1
2017-Nov-18 05:25N 52°27' E 004°07'0 0.1
2017-Nov-18 04:58N 52°27' E 004°07'0 0.0
2017-Nov-18 04:25N 52°27' E 004°07'0 0.0
2017-Nov-18 03:58N 52°27' E 004°07'0 0.0
2017-Nov-18 03:25N 52°27' E 004°07'0 0.0
2017-Nov-18 02:55N 52°27' E 004°07'0 0.0
2017-Nov-18 02:28N 52°27' E 004°07'0 0.0
2017-Nov-18 01:58N 52°27' E 004°07'0 0.1
2017-Nov-18 01:19N 52°27' E 004°07'0 0.0
2017-Nov-18 00:58N 52°27' E 004°07'0 0.1
2017-Nov-18 00:28N 52°27' E 004°07'0 0.1
2017-Nov-17 23:58N 52°27' E 004°07'0 0.0
2017-Nov-17 23:28N 52°27' E 004°07'0 0.0
2017-Nov-17 22:55N 52°27' E 004°07'0 0.0
2017-Nov-17 22:25N 52°27' E 004°07'0 0.0
2017-Nov-17 21:55N 52°27' E 004°07'0 0.0
2017-Nov-17 21:25N 52°27' E 004°07'0 0.0
2017-Nov-17 20:58N 52°27' E 004°07'0 0.0
2017-Nov-17 20:28N 52°27' E 004°07'0 0.0
2017-Nov-17 19:58N 52°27' E 004°07'0 0.0
2017-Nov-17 19:31N 52°27' E 004°07'0 0.0
2017-Nov-17 19:01N 52°27' E 004°07'0 0.0
2017-Nov-17 18:30N 52°27' E 004°07'0 0.0
2017-Nov-17 17:51N 52°27' E 004°07'0 0.0
2017-Nov-17 17:30N 52°27' E 004°07'0 0.1
2017-Nov-17 17:00N 52°27' E 004°07'0 0.0
2017-Nov-17 16:30N 52°27' E 004°07'0 0.0
2017-Nov-17 16:00N 52°27' E 004°07'0 0.0
2017-Nov-17 15:30N 52°27' E 004°07'0 0.0
2017-Nov-17 15:00N 52°27' E 004°07'0 0.0
2017-Nov-17 14:18N 52°27' E 004°07'0 0.0
2017-Nov-17 14:00N 52°27' E 004°07'0 0.0
2017-Nov-17 13:30N 52°27' E 004°07'0 0.1
2017-Nov-17 13:00N 52°27' E 004°07'0 0.1
2017-Nov-17 12:30N 52°27' E 004°07'0 0.1
2017-Nov-17 12:00N 52°27' E 004°07'0 0.0
2017-Nov-17 11:24N 52°27' E 004°07'0 0.1
2017-Nov-17 11:00N 52°27' E 004°07'0 0.0
2017-Nov-17 10:30N 52°27' E 004°07'0 0.0
2017-Nov-17 09:57N 52°27' E 004°07'0 0.0
2017-Nov-17 09:21N 52°27' E 004°07'0 0.0
2017-Nov-17 09:00N 52°27' E 004°07'0 0.0
2017-Nov-17 08:30N 52°27' E 004°07'0 0.0
2017-Nov-17 08:00N 52°27' E 004°07'0 0.0
2017-Nov-17 07:27N 52°27' E 004°07'0 0.0
2017-Nov-17 07:00N 52°27' E 004°07'0 0.0
2017-Nov-17 06:30N 52°27' E 004°07'0 0.0
2017-Nov-17 05:57N 52°27' E 004°07'0 0.0
2017-Nov-17 05:30N 52°27' E 004°07'0 0.0
2017-Nov-17 04:51N 52°27' E 004°07'0 0.2
2017-Nov-17 04:24N 52°27' E 004°07'0 0.0
2017-Nov-17 04:00N 52°27' E 004°07'0 0.0
2017-Nov-17 03:30N 52°27' E 004°07'0 0.0
2017-Nov-17 03:00N 52°27' E 004°07'0 0.0
2017-Nov-17 02:30N 52°27' E 004°07'0 0.0
2017-Nov-17 02:00N 52°27' E 004°07'0 0.0
2017-Nov-17 01:27N 52°27' E 004°07'0 0.1
2017-Nov-17 01:00N 52°27' E 004°07'0 0.1
2017-Nov-17 00:30N 52°27' E 004°07'0 0.1
2017-Nov-17 00:00N 52°27' E 004°07'0 0.0
2017-Nov-16 23:09N 52°27' E 004°07'0 0.0
2017-Nov-16 22:42N 52°27' E 004°07'0 0.0
2017-Nov-16 22:27N 52°27' E 004°07'0 0.0
2017-Nov-16 22:00N 52°27' E 004°07'0 0.0
2017-Nov-16 21:30N 52°27' E 004°07'0 0.0
2017-Nov-16 20:58N 52°27' E 004°07'0 0.0
2017-Nov-16 20:28N 52°27' E 004°07'0 0.0
2017-Nov-16 20:00N 52°27' E 004°07'0 0.2
2017-Nov-16 19:30N 52°27' E 004°07'4 7.6
2017-Nov-16 19:00N 52°26' E 004°01'7 8.6
2017-Nov-16 18:09N 52°21' E 003°52'510.5
2017-Nov-16 17:39N 52°16' E 003°53'211.2
2017-Nov-16 17:30N 52°14' E 003°53'611.5
2017-Nov-16 17:00N 52°08' E 003°55'612.0
2017-Nov-16 16:30N 52°02' E 003°55'510.1
2017-Nov-16 16:00N 51°60' E 004°02'612.1
2017-Nov-16 15:30N 51°57' E 004°11'611.8
2017-Nov-16 15:00N 51°54' E 004°19'5 9.0
2017-Nov-16 14:30N 51°54' E 004°26'1 1.2
2017-Nov-16 13:58N 51°53' E 004°27'0 0.0
2017-Nov-16 13:28N 51°53' E 004°27'0 0.0
2017-Nov-16 12:58N 51°53' E 004°27'0 0.0
2017-Nov-16 12:28N 51°53' E 004°27'0 0.0
2017-Nov-16 11:58N 51°53' E 004°27'0 0.0
2017-Nov-16 11:28N 51°53' E 004°27'0 0.0
2017-Nov-16 10:58N 51°53' E 004°27'0 0.0
2017-Nov-16 10:31N 51°53' E 004°27'0 0.0
2017-Nov-16 10:01N 51°53' E 004°27'0 0.0
2017-Nov-16 09:27N 51°53' E 004°27'0 0.0
2017-Nov-16 09:00N 51°53' E 004°27'0 0.0
2017-Nov-16 08:30N 51°53' E 004°27'0 0.0
2017-Nov-16 08:00N 51°53' E 004°27'0 0.0
2017-Nov-16 07:30N 51°53' E 004°27'0 0.0
2017-Nov-16 07:00N 51°53' E 004°27'0 0.0
2017-Nov-16 06:30N 51°53' E 004°27'0 0.0
2017-Nov-16 06:00N 51°53' E 004°27'0 0.0
2017-Nov-16 05:30N 51°53' E 004°27'0 0.0
2017-Nov-16 05:00N 51°53' E 004°27'0 0.0
2017-Nov-16 04:30N 51°53' E 004°27'0 0.0
2017-Nov-16 04:00N 51°53' E 004°27'0 0.0
2017-Nov-16 03:30N 51°53' E 004°27'0 0.0
2017-Nov-16 03:00N 51°53' E 004°27'0 0.0
2017-Nov-16 02:30N 51°53' E 004°27'0 0.0
2017-Nov-16 02:00N 51°53' E 004°27'0 0.0
2017-Nov-16 01:30N 51°53' E 004°27'0 0.0
2017-Nov-16 01:00N 51°53' E 004°27'0 0.0
2017-Nov-16 00:30N 51°53' E 004°27'0 0.0
2017-Nov-15 23:57N 51°53' E 004°27'0 0.0
2017-Nov-15 23:30N 51°53' E 004°27'0 0.0
2017-Nov-15 23:00N 51°53' E 004°27'0 0.0
2017-Nov-15 22:30N 51°53' E 004°27'0 0.0
2017-Nov-15 22:00N 51°53' E 004°27'0 0.0
2017-Nov-15 21:30N 51°53' E 004°27'0 0.0
2017-Nov-15 21:00N 51°53' E 004°27'0 0.0
2017-Nov-15 20:30N 51°53' E 004°27'0 0.0
2017-Nov-15 20:00N 51°53' E 004°27'0 0.0
2017-Nov-15 19:30N 51°53' E 004°27'0 0.0
2017-Nov-15 19:00N 51°53' E 004°27'0 0.0
2017-Nov-15 18:30N 51°53' E 004°27'0 0.0
2017-Nov-15 18:00N 51°53' E 004°27'0 0.0
2017-Nov-15 17:30N 51°53' E 004°27'0 0.0
2017-Nov-15 17:00N 51°53' E 004°27'0 0.0
2017-Nov-15 16:30N 51°53' E 004°27'0 0.0
2017-Nov-15 16:00N 51°53' E 004°27'0 0.0
2017-Nov-15 15:30N 51°53' E 004°27'0 0.0
2017-Nov-15 15:00N 51°53' E 004°27'0 0.0
2017-Nov-15 14:30N 51°53' E 004°27'0 0.0
2017-Nov-15 14:00N 51°53' E 004°27'0 0.0
2017-Nov-15 13:30N 51°53' E 004°27'0 0.0
2017-Nov-15 13:00N 51°53' E 004°27'0 0.0
2017-Nov-15 12:30N 51°53' E 004°27'0 0.0
2017-Nov-15 11:57N 51°53' E 004°27'0 0.0
2017-Nov-15 11:30N 51°53' E 004°27'0 0.0
2017-Nov-15 11:00N 51°53' E 004°27'0 0.0
2017-Nov-15 10:30N 51°53' E 004°27'0 0.0
2017-Nov-15 10:00N 51°53' E 004°27'0 0.0
2017-Nov-15 09:30N 51°53' E 004°27'0 0.0
2017-Nov-15 09:00N 51°53' E 004°27'0 0.0
2017-Nov-15 08:30N 51°53' E 004°27'0 0.0
2017-Nov-15 08:00N 51°53' E 004°27'0 0.0
2017-Nov-15 07:30N 51°53' E 004°27'0 0.0
2017-Nov-15 07:00N 51°53' E 004°27'0 0.0
2017-Nov-15 06:30N 51°53' E 004°27'0 0.0
2017-Nov-15 06:00N 51°53' E 004°27'0 0.0
2017-Nov-15 05:30N 51°53' E 004°27'0 0.0
2017-Nov-15 05:00N 51°53' E 004°27'0 0.0
2017-Nov-15 04:30N 51°53' E 004°27'0 0.0
2017-Nov-15 04:00N 51°53' E 004°27'0 0.0
2017-Nov-15 03:27N 51°53' E 004°27'0 0.0
2017-Nov-15 03:00N 51°53' E 004°27'0 0.0
2017-Nov-15 02:30N 51°53' E 004°27'0 0.0
2017-Nov-15 01:59N 51°53' E 004°27'0 0.0
2017-Nov-15 01:29N 51°53' E 004°27'0 0.0
2017-Nov-15 00:56N 51°53' E 004°27'0 0.0
2017-Nov-15 00:29N 51°53' E 004°27'0 0.0
2017-Nov-14 23:59N 51°53' E 004°27'0 0.0
2017-Nov-14 23:29N 51°53' E 004°27'0 0.0
2017-Nov-14 22:59N 51°53' E 004°27'0 0.0
2017-Nov-14 22:29N 51°53' E 004°27'0 0.0
2017-Nov-14 21:59N 51°53' E 004°27'0 0.0
2017-Nov-14 21:29N 51°53' E 004°27'0 0.0
2017-Nov-14 20:59N 51°53' E 004°27'0 0.0
2017-Nov-14 20:29N 51°53' E 004°27'0 0.0
2017-Nov-14 19:59N 51°53' E 004°27'0 0.0
2017-Nov-14 19:29N 51°53' E 004°27'0 0.0
2017-Nov-14 18:59N 51°53' E 004°27'0 0.0
2017-Nov-14 18:29N 51°53' E 004°27'0 0.0
2017-Nov-14 17:59N 51°53' E 004°27'0 0.0
2017-Nov-14 17:29N 51°53' E 004°27'0 0.0
2017-Nov-14 16:59N 51°53' E 004°27'0 0.0
2017-Nov-14 16:29N 51°53' E 004°27'0 0.0
2017-Nov-14 15:59N 51°53' E 004°27'0 0.0
2017-Nov-14 15:29N 51°53' E 004°27'0 0.0
2017-Nov-14 14:59N 51°53' E 004°27'0 0.0
2017-Nov-14 14:26N 51°53' E 004°27'0 0.0
2017-Nov-14 13:59N 51°53' E 004°27'0 0.0
2017-Nov-14 13:29N 51°53' E 004°27'0 0.0
2017-Nov-14 12:59N 51°53' E 004°27'0 0.0
2017-Nov-14 12:29N 51°53' E 004°27'0 0.0
2017-Nov-14 11:59N 51°53' E 004°27'0 0.0
2017-Nov-14 11:29N 51°53' E 004°27'0 0.0
2017-Nov-14 10:59N 51°53' E 004°27'0 0.0
2017-Nov-14 10:29N 51°53' E 004°27'0 0.0
2017-Nov-14 09:56N 51°53' E 004°27'0 0.0
2017-Nov-14 09:29N 51°53' E 004°27'0 0.0
2017-Nov-14 08:59N 51°53' E 004°27'0 0.0
2017-Nov-14 08:29N 51°53' E 004°27'0 0.0
2017-Nov-14 07:59N 51°53' E 004°27'0 0.0
2017-Nov-14 07:29N 51°53' E 004°27'0 0.0
2017-Nov-14 06:59N 51°53' E 004°27'0 0.0
2017-Nov-14 06:29N 51°53' E 004°27'0 0.0
2017-Nov-14 05:59N 51°53' E 004°27'0 0.0
2017-Nov-14 05:29N 51°53' E 004°27'0 0.0
2017-Nov-14 04:59N 51°53' E 004°27'0 0.0
2017-Nov-14 04:29N 51°53' E 004°27'0 0.0
2017-Nov-14 03:59N 51°53' E 004°27'0 0.0
2017-Nov-14 03:29N 51°53' E 004°27'0 0.0
2017-Nov-14 02:59N 51°53' E 004°27'0 0.0
2017-Nov-14 02:29N 51°53' E 004°27'0 0.0
2017-Nov-14 01:59N 51°53' E 004°27'0 0.0
2017-Nov-14 01:29N 51°53' E 004°27'0 0.0
2017-Nov-14 00:59N 51°53' E 004°27'0 0.0
2017-Nov-14 00:29N 51°53' E 004°27'0 0.0
2017-Nov-13 23:59N 51°53' E 004°27'0 0.0
2017-Nov-13 23:29N 51°53' E 004°27'0 0.0
2017-Nov-13 22:59N 51°53' E 004°27'0 0.0
2017-Nov-13 22:29N 51°53' E 004°27'0 0.0
2017-Nov-13 21:59N 51°53' E 004°27'0 0.0
2017-Nov-13 01:58N 51°53' E 004°27'0 0.0
2017-Nov-13 01:28N 51°53' E 004°27'0 0.0
2017-Nov-13 00:58N 51°53' E 004°27'0 0.0
2017-Nov-13 00:28N 51°53' E 004°27'0 0.0
2017-Nov-12 23:58N 51°53' E 004°27'0 0.0
2017-Nov-12 23:28N 51°53' E 004°27'0 0.0
2017-Nov-12 22:58N 51°53' E 004°27'0 0.0
2017-Nov-12 22:28N 51°53' E 004°27'0 0.0
2017-Nov-12 21:58N 51°53' E 004°27'0 0.0
2017-Nov-12 21:28N 51°53' E 004°27'0 0.0
2017-Nov-12 20:58N 51°53' E 004°27'0 0.0
2017-Nov-12 20:25N 51°53' E 004°27'0 0.0
2017-Nov-12 19:58N 51°53' E 004°27'0 0.0
2017-Nov-12 19:28N 51°53' E 004°27'0 0.0
2017-Nov-12 18:58N 51°53' E 004°27'0 0.0
2017-Nov-12 18:28N 51°53' E 004°27'0 0.0
2017-Nov-12 17:58N 51°53' E 004°27'0 0.0
2017-Nov-12 17:28N 51°53' E 004°27'0 0.0
2017-Nov-12 16:58N 51°53' E 004°27'0 0.0
2017-Nov-12 16:28N 51°53' E 004°27'0 0.0
2017-Nov-12 15:58N 51°53' E 004°27'0 0.0
2017-Nov-12 15:28N 51°53' E 004°27'0 0.0
2017-Nov-12 14:58N 51°53' E 004°27'0 0.0
2017-Nov-12 14:28N 51°53' E 004°27'0 0.0
2017-Nov-12 13:58N 51°53' E 004°27'0 0.0
2017-Nov-12 13:25N 51°53' E 004°27'0 0.0
2017-Nov-12 12:58N 51°53' E 004°27'0 0.0
2017-Nov-12 12:31N 51°53' E 004°27'0 0.0
2017-Nov-12 12:01N 51°53' E 004°27'0 0.0
2017-Nov-12 11:31N 51°53' E 004°27'0 0.0
2017-Nov-12 11:00N 51°53' E 004°27'0 0.0
2017-Nov-12 10:30N 51°53' E 004°27'0 0.0
2017-Nov-12 10:00N 51°53' E 004°27'0 0.0
2017-Nov-12 09:30N 51°53' E 004°27'0 0.0
2017-Nov-12 09:00N 51°53' E 004°27'0 0.0
2017-Nov-12 08:30N 51°53' E 004°27'0 0.0
2017-Nov-12 08:00N 51°53' E 004°27'0 0.0
2017-Nov-12 07:30N 51°53' E 004°27'0 0.0
2017-Nov-12 07:00N 51°53' E 004°27'0 0.0
2017-Nov-12 06:30N 51°53' E 004°27'0 0.0
2017-Nov-12 06:00N 51°53' E 004°27'0 0.0
2017-Nov-12 05:30N 51°53' E 004°27'0 0.0
2017-Nov-12 05:00N 51°53' E 004°27'0 0.0
2017-Nov-12 04:30N 51°53' E 004°27'0 0.0
2017-Nov-12 04:00N 51°53' E 004°27'0 0.0
2017-Nov-12 03:30N 51°53' E 004°27'0 0.0
2017-Nov-12 03:00N 51°53' E 004°27'0 0.0
2017-Nov-12 02:30N 51°53' E 004°27'0 0.0
2017-Nov-12 02:00N 51°53' E 004°27'0 0.0
2017-Nov-12 01:30N 51°53' E 004°27'0 0.0
2017-Nov-12 01:00N 51°53' E 004°27'0 0.0
2017-Nov-12 00:27N 51°53' E 004°27'0 0.0
2017-Nov-12 00:00N 51°53' E 004°27'0 0.0
2017-Nov-11 23:30N 51°53' E 004°27'0 0.0
2017-Nov-11 23:00N 51°53' E 004°27'0 0.0
2017-Nov-11 22:30N 51°53' E 004°27'0 0.0
2017-Nov-11 22:00N 51°53' E 004°27'0 0.0
2017-Nov-11 21:30N 51°53' E 004°27'0 0.0
2017-Nov-11 21:00N 51°53' E 004°27'0 0.0
2017-Nov-11 20:30N 51°53' E 004°27'0 0.0
2017-Nov-11 20:00N 51°53' E 004°27'0 0.0
2017-Nov-11 19:30N 51°53' E 004°27'0 0.0
2017-Nov-11 19:00N 51°53' E 004°27'0 0.0
2017-Nov-11 18:30N 51°53' E 004°27'0 0.0
2017-Nov-11 18:00N 51°53' E 004°27'0 0.0
2017-Nov-11 17:30N 51°53' E 004°27'0 0.0
2017-Nov-11 17:00N 51°53' E 004°27'0 0.0
2017-Nov-11 16:30N 51°53' E 004°27'0 0.0
2017-Nov-11 16:00N 51°53' E 004°27'0 0.0
2017-Nov-11 15:30N 51°53' E 004°27'0 0.0
2017-Nov-11 15:00N 51°53' E 004°27'0 0.0
2017-Nov-11 14:30N 51°53' E 004°27'0 0.0
2017-Nov-11 14:00N 51°53' E 004°27'0 0.0
2017-Nov-11 13:30N 51°53' E 004°27'0 0.0
2017-Nov-11 13:00N 51°53' E 004°27'0 0.0
2017-Nov-11 12:30N 51°53' E 004°27'0 0.0
2017-Nov-11 12:00N 51°53' E 004°27'0 0.0
2017-Nov-11 11:30N 51°53' E 004°27'0 0.0
2017-Nov-11 11:00N 51°53' E 004°27'0 0.0
2017-Nov-11 10:30N 51°53' E 004°27'0 0.0
2017-Nov-11 10:00N 51°53' E 004°27'0 0.0
2017-Nov-11 09:30N 51°53' E 004°27'0 0.0
2017-Nov-11 09:00N 51°53' E 004°27'0 0.0
2017-Nov-11 08:30N 51°53' E 004°27'0 0.0
2017-Nov-11 08:00N 51°53' E 004°27'0 0.0
2017-Nov-11 07:30N 51°53' E 004°27'0 0.0
2017-Nov-11 07:00N 51°53' E 004°27'0 0.0
2017-Nov-11 06:30N 51°53' E 004°27'0 0.0
2017-Nov-11 06:00N 51°53' E 004°27'0 0.0
2017-Nov-11 05:30N 51°53' E 004°27'0 0.0
2017-Nov-11 05:00N 51°53' E 004°27'0 0.0
2017-Nov-11 04:30N 51°53' E 004°27'0 0.0
2017-Nov-11 03:59N 51°53' E 004°27'0 0.0
2017-Nov-11 03:29N 51°53' E 004°27'0 0.0
2017-Nov-11 02:59N 51°53' E 004°27'0 0.0
2017-Nov-11 02:29N 51°53' E 004°27'0 0.0
2017-Nov-11 01:59N 51°53' E 004°27'0 0.0
2017-Nov-11 01:29N 51°53' E 004°27'0 0.0
2017-Nov-11 00:59N 51°53' E 004°27'0 0.0
2017-Nov-11 00:29N 51°53' E 004°27'0 0.0
2017-Nov-10 23:59N 51°53' E 004°27'0 0.0
2017-Nov-10 23:29N 51°53' E 004°27'0 0.0
2017-Nov-10 22:59N 51°53' E 004°27'0 0.0
2017-Nov-10 22:29N 51°53' E 004°27'0 0.0
2017-Nov-10 21:59N 51°53' E 004°27'0 0.0
2017-Nov-10 21:29N 51°53' E 004°27'0 0.0
2017-Nov-10 20:59N 51°53' E 004°27'0 0.0
2017-Nov-10 20:29N 51°53' E 004°27'0 0.0
2017-Nov-10 19:59N 51°53' E 004°27'0 0.0
2017-Nov-10 19:29N 51°53' E 004°27'0 0.0
2017-Nov-10 18:59N 51°53' E 004°27'0 0.0
2017-Nov-10 18:29N 51°53' E 004°27'0 0.0
2017-Nov-10 17:59N 51°53' E 004°27'0 0.0
2017-Nov-10 17:29N 51°53' E 004°27'0 0.0
2017-Nov-10 16:59N 51°53' E 004°27'0 0.0
2017-Nov-10 16:29N 51°53' E 004°27'0 0.0
2017-Nov-10 15:59N 51°53' E 004°27'0 0.0
2017-Nov-10 15:29N 51°53' E 004°27'0 0.0
2017-Nov-10 14:59N 51°53' E 004°27'0 0.0
2017-Nov-10 14:29N 51°53' E 004°27'0 0.0
2017-Nov-10 13:59N 51°53' E 004°27'0 0.0
2017-Nov-10 13:29N 51°53' E 004°27'0 0.0
2017-Nov-10 12:59N 51°53' E 004°27'0 0.0
2017-Nov-10 12:29N 51°53' E 004°27'0 0.0
2017-Nov-10 11:59N 51°53' E 004°27'0 0.0
2017-Nov-10 11:29N 51°53' E 004°27'0 0.0
2017-Nov-10 10:59N 51°53' E 004°27'0 0.0
2017-Nov-10 10:29N 51°53' E 004°27'0 0.0
2017-Nov-10 09:59N 51°53' E 004°27'0 0.0
2017-Nov-10 09:29N 51°53' E 004°27'0 0.0
2017-Nov-10 08:59N 51°53' E 004°27'0 0.0
2017-Nov-10 08:29N 51°53' E 004°27'0 0.0
2017-Nov-10 07:59N 51°53' E 004°27'0 0.0
2017-Nov-10 07:29N 51°53' E 004°27'0 0.0
2017-Nov-10 06:59N 51°53' E 004°27'0 0.0
2017-Nov-10 06:29N 51°53' E 004°27'0 0.0
2017-Nov-10 05:59N 51°53' E 004°27'0 0.0
2017-Nov-10 05:29N 51°53' E 004°27'0 0.0
2017-Nov-10 04:59N 51°53' E 004°27'0 0.0
2017-Nov-10 04:29N 51°53' E 004°27'0 0.0
2017-Nov-10 03:59N 51°53' E 004°27'0 0.0
2017-Nov-10 03:29N 51°53' E 004°27'0 0.0
2017-Nov-10 02:59N 51°53' E 004°27'0 0.0
2017-Nov-10 02:29N 51°53' E 004°27'0 0.0
2017-Nov-10 01:59N 51°53' E 004°27'0 0.0
2017-Nov-10 01:29N 51°53' E 004°27'0 0.0
2017-Nov-10 00:59N 51°53' E 004°27'0 0.0
2017-Nov-10 00:29N 51°53' E 004°27'0 0.0
2017-Nov-09 23:59N 51°53' E 004°27'0 0.0
2017-Nov-09 23:29N 51°53' E 004°27'0 0.0
2017-Nov-09 22:59N 51°53' E 004°27'0 0.0
2017-Nov-09 22:29N 51°53' E 004°27'0 0.0
2017-Nov-09 21:59N 51°53' E 004°27'0 0.0
2017-Nov-09 21:29N 51°53' E 004°27'0 0.0
2017-Nov-09 20:59N 51°53' E 004°27'0 0.0
2017-Nov-09 20:28N 51°53' E 004°27'0 0.0
2017-Nov-09 19:58N 51°53' E 004°27'0 0.0
2017-Nov-09 19:28N 51°53' E 004°27'0 0.0
2017-Nov-09 18:58N 51°53' E 004°27'0 0.0
2017-Nov-09 18:28N 51°53' E 004°27'0 0.0
2017-Nov-09 17:58N 51°53' E 004°27'0 0.0
2017-Nov-09 17:28N 51°53' E 004°27'0 0.0
2017-Nov-09 16:58N 51°53' E 004°27'0 0.3
2017-Nov-09 16:30N 51°53' E 004°27'4 7.2
2017-Nov-09 16:00N 51°54' E 004°21'611.3
2017-Nov-09 15:30N 51°56' E 004°13'611.0
2017-Nov-09 15:00N 51°59' E 004°05'611.1
2017-Nov-09 14:30N 51°60' E 003°56'611.7
2017-Nov-09 14:00N 52°01' E 003°47'5 9.6
2017-Nov-09 13:30N 52°02' E 003°39'  

Dump ship's entire track history